createdAt,value
2022-12-13T00:00:35.297Z,986.25
2022-12-13T00:01:35.315Z,986.24
2022-12-13T00:02:35.335Z,986.19
2022-12-13T00:03:35.293Z,986.23
2022-12-13T00:04:35.247Z,986.17
2022-12-13T00:05:35.251Z,986.17
2022-12-13T00:06:35.272Z,986.16
2022-12-13T00:07:35.234Z,986.17
2022-12-13T00:08:35.223Z,986.18
2022-12-13T00:09:35.201Z,986.15
2022-12-13T00:10:35.218Z,986.14
2022-12-13T00:11:35.219Z,986.08
2022-12-13T00:12:35.207Z,986.07
2022-12-13T00:13:35.166Z,986.06
2022-12-13T00:14:35.158Z,986.07
2022-12-13T00:15:35.145Z,986.08
2022-12-13T00:16:35.156Z,986.13
2022-12-13T00:17:35.151Z,986.03
2022-12-13T00:18:35.120Z,986.02
2022-12-13T00:19:35.125Z,986.07
2022-12-13T00:20:35.109Z,986.04
2022-12-13T00:21:35.082Z,986.07
2022-12-13T00:22:35.079Z,986.07
2022-12-13T00:23:35.091Z,985.99
2022-12-13T00:24:35.096Z,986.00
2022-12-13T00:25:35.054Z,986.02
2022-12-13T00:26:35.050Z,986.02
2022-12-13T00:27:35.038Z,986.06
2022-12-13T00:28:35.026Z,986.04
2022-12-13T00:29:35.049Z,986.06
2022-12-13T00:30:35.044Z,985.96
2022-12-13T00:32:37.000Z,986.07
2022-12-13T00:33:35.021Z,986.03
2022-12-13T00:34:34.984Z,986.07
2022-12-13T00:35:34.957Z,986.08
2022-12-13T00:36:34.967Z,986.06
2022-12-13T00:37:34.942Z,986.03
2022-12-13T00:38:34.926Z,986.11
2022-12-13T00:39:34.967Z,986.07
2022-12-13T00:40:34.922Z,986.09
2022-12-13T00:41:34.906Z,986.12
2022-12-13T00:42:34.909Z,986.10
2022-12-13T00:43:34.875Z,986.09
2022-12-13T00:44:34.907Z,986.07
2022-12-13T00:45:34.870Z,986.09
2022-12-13T00:46:34.884Z,986.10
2022-12-13T00:47:34.850Z,986.03
2022-12-13T00:48:34.845Z,986.07
2022-12-13T00:49:34.889Z,986.01
2022-12-13T00:50:34.824Z,986.08
2022-12-13T00:51:34.834Z,986.07
2022-12-13T00:52:34.806Z,986.05
2022-12-13T00:53:34.796Z,986.08
2022-12-13T00:54:34.780Z,986.05
2022-12-13T00:55:34.783Z,986.06
2022-12-13T00:56:34.798Z,986.07
2022-12-13T00:57:34.757Z,986.09
2022-12-13T00:58:34.760Z,986.02
2022-12-13T00:59:34.753Z,986.03
2022-12-13T01:00:34.737Z,985.98
2022-12-13T01:01:34.756Z,985.99
2022-12-13T01:02:34.715Z,985.99
2022-12-13T01:03:34.747Z,985.99
2022-12-13T01:04:34.710Z,985.92
2022-12-13T01:06:13.272Z,985.94
2022-12-13T01:06:36.704Z,985.88
2022-12-13T01:07:34.661Z,985.92
2022-12-13T01:08:34.662Z,985.86
2022-12-13T01:09:34.641Z,985.88
2022-12-13T01:10:34.656Z,985.87
2022-12-13T01:11:34.631Z,985.90
2022-12-13T01:12:34.607Z,985.86
2022-12-13T01:13:34.606Z,985.86
2022-12-13T01:14:34.601Z,985.89
2022-12-13T01:15:34.633Z,985.93
2022-12-13T01:16:34.619Z,985.88
2022-12-13T01:17:34.571Z,985.91
2022-12-13T01:18:34.552Z,985.91
2022-12-13T01:19:34.571Z,985.91
2022-12-13T01:20:34.538Z,985.90
2022-12-13T01:21:34.530Z,985.89
2022-12-13T01:22:34.556Z,985.89
2022-12-13T01:23:34.507Z,985.93
2022-12-13T01:24:34.496Z,985.94
2022-12-13T01:25:34.500Z,985.94
2022-12-13T01:26:34.474Z,985.94
2022-12-13T01:27:34.495Z,985.92
2022-12-13T01:28:34.472Z,985.93
2022-12-13T01:29:34.455Z,985.93
2022-12-13T01:30:34.485Z,985.90
2022-12-13T01:31:34.436Z,985.91
2022-12-13T01:32:34.458Z,985.94
2022-12-13T01:33:34.413Z,985.91
2022-12-13T01:34:34.426Z,985.88
2022-12-13T01:35:34.405Z,985.88
2022-12-13T01:36:38.214Z,985.87
2022-12-13T01:37:37.570Z,985.86
2022-12-13T01:38:37.599Z,985.88
2022-12-13T01:39:37.977Z,985.90
2022-12-13T01:40:38.591Z,985.81
2022-12-13T01:41:34.345Z,985.88
2022-12-13T01:42:34.338Z,985.86
2022-12-13T01:43:34.331Z,985.83
2022-12-13T01:44:34.496Z,985.78
2022-12-13T01:45:34.304Z,985.85
2022-12-13T01:46:34.392Z,985.89
2022-12-13T01:47:34.312Z,985.86
2022-12-13T01:48:34.279Z,985.90
2022-12-13T01:49:34.283Z,985.87
2022-12-13T01:50:34.263Z,985.84
2022-12-13T01:51:34.247Z,985.82
2022-12-13T01:52:34.251Z,985.86
2022-12-13T01:53:34.223Z,985.88
2022-12-13T01:54:34.504Z,985.86
2022-12-13T01:55:34.215Z,985.86
2022-12-13T01:56:35.232Z,985.86
2022-12-13T01:57:34.195Z,985.80
2022-12-13T01:58:34.182Z,985.88
2022-12-13T01:59:34.187Z,985.87
2022-12-13T02:00:34.159Z,985.85
2022-12-13T02:01:34.201Z,985.85
2022-12-13T02:02:34.167Z,985.86
2022-12-13T02:03:34.135Z,985.92
2022-12-13T02:04:34.205Z,985.83
2022-12-13T02:05:34.165Z,985.87
2022-12-13T02:06:34.148Z,985.88
2022-12-13T02:07:34.101Z,985.88
2022-12-13T02:08:35.823Z,985.82
2022-12-13T02:09:34.090Z,985.85
2022-12-13T02:10:34.069Z,985.84
2022-12-13T02:11:34.073Z,985.80
2022-12-13T02:12:34.096Z,985.82
2022-12-13T02:13:34.064Z,985.81
2022-12-13T02:14:34.045Z,985.83
2022-12-13T02:15:34.046Z,985.72
2022-12-13T02:16:34.029Z,985.80
2022-12-13T02:17:34.031Z,985.84
2022-12-13T02:18:34.001Z,985.81
2022-12-13T02:19:33.989Z,985.75
2022-12-13T02:20:33.978Z,985.74
2022-12-13T02:21:33.990Z,985.71
2022-12-13T02:22:33.979Z,985.74
2022-12-13T02:23:33.962Z,985.76
2022-12-13T02:24:33.966Z,985.78
2022-12-13T02:25:33.966Z,985.76
2022-12-13T02:26:33.932Z,985.72
2022-12-13T02:27:33.945Z,985.76
2022-12-13T02:28:34.930Z,985.78
2022-12-13T02:29:33.912Z,985.78
2022-12-13T02:30:33.929Z,985.76
2022-12-13T02:31:33.904Z,985.77
2022-12-13T02:32:33.881Z,985.75
2022-12-13T02:33:33.866Z,985.71
2022-12-13T02:34:34.270Z,985.75
2022-12-13T02:35:33.896Z,985.74
2022-12-13T02:36:36.317Z,985.84
2022-12-13T02:37:33.824Z,985.83
2022-12-13T02:38:33.827Z,985.82
2022-12-13T02:39:33.807Z,985.84
2022-12-13T02:40:33.812Z,985.82
2022-12-13T02:41:33.811Z,985.84
2022-12-13T02:42:33.777Z,985.77
2022-12-13T02:43:34.109Z,985.80
2022-12-13T02:44:33.770Z,985.81
2022-12-13T02:45:33.765Z,985.79
2022-12-13T02:46:33.788Z,985.78
2022-12-13T02:47:33.727Z,985.76
2022-12-13T02:48:33.705Z,985.75
2022-12-13T02:49:33.724Z,985.73
2022-12-13T02:50:33.710Z,985.74
2022-12-13T02:51:33.734Z,985.69
2022-12-13T02:52:33.696Z,985.71
2022-12-13T02:53:33.982Z,985.70
2022-12-13T02:54:33.681Z,985.66
2022-12-13T02:55:33.667Z,985.70
2022-12-13T02:56:33.686Z,985.70
2022-12-13T02:57:33.635Z,985.67
2022-12-13T02:58:33.643Z,985.69
2022-12-13T02:59:33.622Z,985.67
2022-12-13T03:00:33.610Z,985.63
2022-12-13T03:01:39.989Z,985.62
2022-12-13T03:02:34.699Z,985.64
2022-12-13T03:03:33.694Z,985.63
2022-12-13T03:04:41.103Z,985.65
2022-12-13T03:05:33.547Z,985.62
2022-12-13T03:06:34.647Z,985.55
2022-12-13T03:07:33.520Z,985.62
2022-12-13T03:08:33.519Z,985.58
2022-12-13T03:09:33.513Z,985.60
2022-12-13T03:10:33.521Z,985.61
2022-12-13T03:11:33.480Z,985.57
2022-12-13T03:12:33.476Z,985.67
2022-12-13T03:13:33.473Z,985.63
2022-12-13T03:14:33.506Z,985.69
2022-12-13T03:15:33.471Z,985.63
2022-12-13T03:16:33.435Z,985.66
2022-12-13T03:17:33.428Z,985.63
2022-12-13T03:18:33.414Z,985.59
2022-12-13T03:19:33.411Z,985.62
2022-12-13T03:20:33.419Z,985.67
2022-12-13T03:21:33.400Z,985.59
2022-12-13T03:22:33.392Z,985.57
2022-12-13T03:23:33.400Z,985.56
2022-12-13T03:24:33.379Z,985.56
2022-12-13T03:25:33.374Z,985.57
2022-12-13T03:26:33.377Z,985.57
2022-12-13T03:27:33.339Z,985.54
2022-12-13T03:28:33.352Z,985.59
2022-12-13T03:29:33.336Z,985.55
2022-12-13T03:30:33.318Z,985.52
2022-12-13T03:31:33.335Z,985.53
2022-12-13T03:32:33.297Z,985.58
2022-12-13T03:33:33.326Z,985.51
2022-12-13T03:34:44.585Z,985.53
2022-12-13T03:35:45.156Z,985.51
2022-12-13T03:36:34.267Z,985.48
2022-12-13T03:37:33.247Z,985.53
2022-12-13T03:38:33.253Z,985.51
2022-12-13T03:39:33.444Z,985.53
2022-12-13T03:40:33.228Z,985.50
2022-12-13T03:41:33.211Z,985.52
2022-12-13T03:42:33.202Z,985.53
2022-12-13T03:43:33.212Z,985.50
2022-12-13T03:44:33.209Z,985.57
2022-12-13T03:45:33.180Z,985.51
2022-12-13T03:46:33.202Z,985.53
2022-12-13T03:47:33.155Z,985.51
2022-12-13T03:48:33.140Z,985.54
2022-12-13T03:49:35.093Z,985.51
2022-12-13T03:50:33.130Z,985.44
2022-12-13T03:51:33.119Z,985.45
2022-12-13T03:52:33.121Z,985.47
2022-12-13T03:53:34.567Z,985.43
2022-12-13T03:54:33.325Z,985.44
2022-12-13T03:55:33.112Z,985.41
2022-12-13T03:56:33.071Z,985.40
2022-12-13T03:57:33.062Z,985.42
2022-12-13T03:58:35.321Z,985.45
2022-12-13T03:59:33.069Z,985.41
2022-12-13T04:00:33.031Z,985.37
2022-12-13T04:01:33.060Z,985.38
2022-12-13T04:02:33.018Z,985.39
2022-12-13T04:03:33.003Z,985.44
2022-12-13T04:04:33.021Z,985.51
2022-12-13T04:05:32.992Z,985.45
2022-12-13T04:06:33.386Z,985.48
2022-12-13T04:07:34.612Z,985.51
2022-12-13T04:08:33.028Z,985.49
2022-12-13T04:09:32.963Z,985.47
2022-12-13T04:10:32.998Z,985.48
2022-12-13T04:11:32.935Z,985.45
2022-12-13T04:12:32.930Z,985.44
2022-12-13T04:13:32.941Z,985.48
2022-12-13T04:14:32.909Z,985.51
2022-12-13T04:15:32.892Z,985.50
2022-12-13T04:16:32.932Z,985.52
2022-12-13T04:17:32.881Z,985.49
2022-12-13T04:18:32.865Z,985.53
2022-12-13T04:19:32.876Z,985.46
2022-12-13T04:20:32.846Z,985.50
2022-12-13T04:21:32.854Z,985.47
2022-12-13T04:22:32.829Z,985.48
2022-12-13T04:23:32.814Z,985.53
2022-12-13T04:24:32.836Z,985.46
2022-12-13T04:25:32.798Z,985.49
2022-12-13T04:26:32.802Z,985.41
2022-12-13T04:27:32.802Z,985.46
2022-12-13T04:28:32.772Z,985.47
2022-12-13T04:29:34.687Z,985.40
2022-12-13T04:30:32.754Z,985.43
2022-12-13T04:31:32.806Z,985.40
2022-12-13T04:32:32.747Z,985.45
2022-12-13T04:33:32.833Z,985.39
2022-12-13T04:34:37.220Z,985.50
2022-12-13T04:35:32.704Z,985.47
2022-12-13T04:36:32.996Z,985.51
2022-12-13T04:37:33.678Z,985.47
2022-12-13T04:38:32.681Z,985.50
2022-12-13T04:39:34.328Z,985.53
2022-12-13T04:40:32.682Z,985.59
2022-12-13T04:41:34.441Z,985.53
2022-12-13T04:42:32.659Z,985.52
2022-12-13T04:43:32.683Z,985.55
2022-12-13T04:44:36.563Z,985.54
2022-12-13T04:45:33.641Z,985.50
2022-12-13T04:46:32.617Z,985.53
2022-12-13T04:47:32.632Z,985.50
2022-12-13T04:48:32.610Z,985.58
2022-12-13T04:49:32.577Z,985.51
2022-12-13T04:50:32.563Z,985.52
2022-12-13T04:51:33.562Z,985.55
2022-12-13T04:52:32.548Z,985.50
2022-12-13T04:53:32.580Z,985.51
2022-12-13T04:54:36.176Z,985.55
2022-12-13T04:55:32.512Z,985.46
2022-12-13T04:56:32.508Z,985.48
2022-12-13T04:57:32.500Z,985.50
2022-12-13T04:58:32.527Z,985.51
2022-12-13T04:59:32.495Z,985.50
2022-12-13T05:00:32.468Z,985.52
2022-12-13T05:01:32.518Z,985.51
2022-12-13T05:02:32.584Z,985.49
2022-12-13T05:03:32.460Z,985.59
2022-12-13T05:04:33.322Z,985.52
2022-12-13T05:05:33.445Z,985.55
2022-12-13T05:06:32.426Z,985.54
2022-12-13T05:07:32.418Z,985.54
2022-12-13T05:08:32.441Z,985.53
2022-12-13T05:09:32.422Z,985.58
2022-12-13T05:10:37.804Z,985.60
2022-12-13T05:11:35.388Z,985.59
2022-12-13T05:12:32.359Z,985.59
2022-12-13T05:13:32.363Z,985.60
2022-12-13T05:14:32.361Z,985.56
2022-12-13T05:15:32.353Z,985.56
2022-12-13T05:16:32.390Z,985.53
2022-12-13T05:17:32.314Z,985.53
2022-12-13T05:18:32.307Z,985.59
2022-12-13T05:19:32.295Z,985.54
2022-12-13T05:20:32.289Z,985.51
2022-12-13T05:21:32.285Z,985.57
2022-12-13T05:22:32.288Z,985.56
2022-12-13T05:23:32.265Z,985.62
2022-12-13T05:24:32.260Z,985.57
2022-12-13T05:25:32.235Z,985.58
2022-12-13T05:26:32.219Z,985.59
2022-12-13T05:27:32.275Z,985.59
2022-12-13T05:28:32.211Z,985.67
2022-12-13T05:29:32.192Z,985.62
2022-12-13T05:30:32.210Z,985.69
2022-12-13T05:31:32.267Z,985.65
2022-12-13T05:32:32.183Z,985.61
2022-12-13T05:33:32.174Z,985.66
2022-12-13T05:34:32.164Z,985.61
2022-12-13T05:35:32.178Z,985.56
2022-12-13T05:36:32.130Z,985.56
2022-12-13T05:37:34.758Z,985.52
2022-12-13T05:38:32.148Z,985.47
2022-12-13T05:39:32.160Z,985.53
2022-12-13T05:40:32.097Z,985.54
2022-12-13T05:41:32.086Z,985.46
2022-12-13T05:42:32.091Z,985.54
2022-12-13T05:43:42.320Z,985.48
2022-12-13T05:44:32.055Z,985.46
2022-12-13T05:45:32.303Z,985.48
2022-12-13T05:46:36.828Z,985.47
2022-12-13T05:47:32.044Z,985.48
2022-12-13T05:48:32.032Z,985.47
2022-12-13T05:49:32.236Z,985.47
2022-12-13T05:50:32.016Z,985.40
2022-12-13T05:51:32.032Z,985.44
2022-12-13T05:52:31.985Z,985.42
2022-12-13T05:53:31.984Z,985.40
2022-12-13T05:54:31.975Z,985.45
2022-12-13T05:55:31.980Z,985.46
2022-12-13T05:56:31.941Z,985.46
2022-12-13T05:57:31.967Z,985.42
2022-12-13T05:58:35.937Z,985.44
2022-12-13T05:59:31.942Z,985.46
2022-12-13T06:00:31.928Z,985.46
2022-12-13T06:01:31.943Z,985.49
2022-12-13T06:02:32.068Z,985.50
2022-12-13T06:03:32.013Z,985.48
2022-12-13T06:04:31.881Z,985.52
2022-12-13T06:05:31.868Z,985.54
2022-12-13T06:06:31.865Z,985.47
2022-12-13T06:07:31.873Z,985.47
2022-12-13T06:08:31.893Z,985.49
2022-12-13T06:09:31.823Z,985.49
2022-12-13T06:10:34.881Z,985.48
2022-12-13T06:11:32.648Z,985.48
2022-12-13T06:12:32.804Z,985.48
2022-12-13T06:13:32.595Z,985.53
2022-12-13T06:14:31.788Z,985.49
2022-12-13T06:15:34.790Z,985.48
2022-12-13T06:16:31.834Z,985.55
2022-12-13T06:17:31.846Z,985.49
2022-12-13T06:18:31.744Z,985.41
2022-12-13T06:19:31.747Z,985.42
2022-12-13T06:20:31.724Z,985.42
2022-12-13T06:21:41.258Z,985.40
2022-12-13T06:22:33.713Z,985.41
2022-12-13T06:23:31.720Z,985.43
2022-12-13T06:24:31.693Z,985.40
2022-12-13T06:25:32.236Z,985.40
2022-12-13T06:26:32.704Z,985.40
2022-12-13T06:27:31.661Z,985.41
2022-12-13T06:28:31.689Z,985.43
2022-12-13T06:29:31.643Z,985.44
2022-12-13T06:30:31.746Z,985.43
2022-12-13T06:31:31.664Z,985.39
2022-12-13T06:32:31.619Z,985.37
2022-12-13T06:33:31.609Z,985.35
2022-12-13T06:34:31.593Z,985.38
2022-12-13T06:35:35.266Z,985.39
2022-12-13T06:36:33.594Z,985.36
2022-12-13T06:37:31.606Z,985.38
2022-12-13T06:38:33.148Z,985.38
2022-12-13T06:39:32.711Z,985.33
2022-12-13T06:40:31.549Z,985.38
2022-12-13T06:41:32.353Z,985.41
2022-12-13T06:42:32.551Z,985.35
2022-12-13T06:43:31.520Z,985.36
2022-12-13T06:44:31.714Z,985.33
2022-12-13T06:45:31.497Z,985.39
2022-12-13T06:46:31.559Z,985.41
2022-12-13T06:47:32.589Z,985.46
2022-12-13T06:48:31.471Z,985.47
2022-12-13T06:49:32.381Z,985.46
2022-12-13T06:50:31.470Z,985.46
2022-12-13T06:51:33.094Z,985.51
2022-12-13T06:52:31.443Z,985.46
2022-12-13T06:53:31.427Z,985.50
2022-12-13T06:54:31.423Z,985.57
2022-12-13T06:55:31.429Z,985.55
2022-12-13T06:56:31.417Z,985.57
2022-12-13T06:57:31.390Z,985.55
2022-12-13T06:58:31.403Z,985.56
2022-12-13T06:59:31.367Z,985.56
2022-12-13T07:00:38.176Z,985.61
2022-12-13T07:01:36.761Z,985.60
2022-12-13T07:02:32.515Z,985.59
2022-12-13T07:03:31.394Z,985.55
2022-12-13T07:04:31.539Z,985.61
2022-12-13T07:05:31.332Z,985.56
2022-12-13T07:06:31.317Z,985.53
2022-12-13T07:07:31.299Z,985.54
2022-12-13T07:08:31.343Z,985.54
2022-12-13T07:09:31.286Z,985.47
2022-12-13T07:10:31.288Z,985.52
2022-12-13T07:11:31.254Z,985.50
2022-12-13T07:12:31.252Z,985.58
2022-12-13T07:13:31.261Z,985.55
2022-12-13T07:14:31.239Z,985.60
2022-12-13T07:15:31.257Z,985.61
2022-12-13T07:16:31.256Z,985.62
2022-12-13T07:17:31.870Z,985.59
2022-12-13T07:18:32.193Z,985.65
2022-12-13T07:19:35.223Z,985.60
2022-12-13T07:20:31.185Z,985.57
2022-12-13T07:21:31.216Z,985.61
2022-12-13T07:22:34.855Z,985.52
2022-12-13T07:23:31.137Z,985.59
2022-12-13T07:24:31.136Z,985.54
2022-12-13T07:25:32.132Z,985.58
2022-12-13T07:26:31.139Z,985.59
2022-12-13T07:27:31.132Z,985.65
2022-12-13T07:28:31.097Z,985.62
2022-12-13T07:29:31.093Z,985.67
2022-12-13T07:30:31.088Z,985.71
2022-12-13T07:31:31.116Z,985.75
2022-12-13T07:32:31.090Z,985.76
2022-12-13T07:33:31.053Z,985.78
2022-12-13T07:34:31.054Z,985.82
2022-12-13T07:35:31.038Z,985.76
2022-12-13T07:36:32.024Z,985.86
2022-12-13T07:37:31.329Z,985.75
2022-12-13T07:38:32.064Z,985.77
2022-12-13T07:39:31.020Z,985.76
2022-12-13T07:40:30.985Z,985.76
2022-12-13T07:41:31.054Z,985.80
2022-12-13T07:42:30.983Z,985.71
2022-12-13T07:43:30.965Z,985.75
2022-12-13T07:44:31.003Z,985.74
2022-12-13T07:45:30.947Z,985.69
2022-12-13T07:46:32.487Z,985.70
2022-12-13T07:47:30.940Z,985.65
2022-12-13T07:48:30.953Z,985.66
2022-12-13T07:49:30.926Z,985.65
2022-12-13T07:50:37.352Z,985.62
2022-12-13T07:51:31.897Z,985.68
2022-12-13T07:52:30.886Z,985.64
2022-12-13T07:53:33.206Z,985.73
2022-12-13T07:54:30.882Z,985.69
2022-12-13T07:55:33.222Z,985.71
2022-12-13T07:56:30.851Z,985.68
2022-12-13T07:57:30.833Z,985.74
2022-12-13T07:58:31.112Z,985.78
2022-12-13T07:59:30.844Z,985.78
2022-12-13T08:00:30.819Z,985.74
2022-12-13T08:01:30.863Z,985.78
2022-12-13T08:02:30.800Z,985.78
2022-12-13T08:03:30.812Z,985.79
2022-12-13T08:04:37.453Z,985.80
2022-12-13T08:05:38.324Z,985.79
2022-12-13T08:06:31.771Z,985.82
2022-12-13T08:07:30.735Z,985.79
2022-12-13T08:08:31.655Z,985.78
2022-12-13T08:09:30.763Z,985.80
2022-12-13T08:10:30.720Z,985.87
2022-12-13T08:11:30.714Z,985.85
2022-12-13T08:12:30.735Z,985.79
2022-12-13T08:13:30.694Z,985.83
2022-12-13T08:14:30.677Z,985.82
2022-12-13T08:15:31.706Z,985.79
2022-12-13T08:16:30.791Z,985.79
2022-12-13T08:17:30.654Z,985.83
2022-12-13T08:18:30.667Z,985.73
2022-12-13T08:19:30.662Z,985.76
2022-12-13T08:20:30.643Z,985.75
2022-12-13T08:21:53.290Z,985.76
2022-12-13T08:22:36.102Z,985.75
2022-12-13T08:23:30.605Z,985.79
2022-12-13T08:24:30.658Z,985.80
2022-12-13T08:25:30.583Z,985.79
2022-12-13T08:26:30.573Z,985.75
2022-12-13T08:27:30.583Z,985.83
2022-12-13T08:28:30.553Z,985.80
2022-12-13T08:29:34.371Z,985.81
2022-12-13T08:30:30.554Z,985.77
2022-12-13T08:31:34.016Z,985.71
2022-12-13T08:32:30.544Z,985.81
2022-12-13T08:33:30.519Z,985.77
2022-12-13T08:34:30.526Z,985.77
2022-12-13T08:35:34.012Z,985.77
2022-12-13T08:36:31.505Z,985.77
2022-12-13T08:37:30.462Z,985.79
2022-12-13T08:38:30.475Z,985.83
2022-12-13T08:39:30.474Z,985.76
2022-12-13T08:40:30.473Z,985.80
2022-12-13T08:41:34.464Z,985.78
2022-12-13T08:42:32.436Z,985.74
2022-12-13T08:43:30.414Z,985.72
2022-12-13T08:44:30.409Z,985.76
2022-12-13T08:45:30.423Z,985.74
2022-12-13T08:46:30.429Z,985.71
2022-12-13T08:47:30.393Z,985.74
2022-12-13T08:48:30.364Z,985.72
2022-12-13T08:49:30.378Z,985.71
2022-12-13T08:50:30.394Z,985.73
2022-12-13T08:51:35.612Z,985.86
2022-12-13T08:52:31.330Z,985.70
2022-12-13T08:53:40.667Z,985.72
2022-12-13T08:54:31.941Z,985.74
2022-12-13T08:55:32.274Z,985.79
2022-12-13T08:56:30.299Z,985.72
2022-12-13T08:57:30.289Z,985.76
2022-12-13T08:58:30.272Z,985.76
2022-12-13T08:59:30.271Z,985.75
2022-12-13T09:00:36.070Z,985.77
2022-12-13T09:01:31.282Z,985.77
2022-12-13T09:02:30.313Z,985.81
2022-12-13T09:03:30.226Z,985.83
2022-12-13T09:04:31.412Z,985.86
2022-12-13T09:06:02.618Z,985.85
2022-12-13T09:06:30.218Z,985.83
2022-12-13T09:07:30.246Z,985.83
2022-12-13T09:08:35.027Z,985.81
2022-12-13T09:09:31.186Z,985.83
2022-12-13T09:10:38.259Z,985.79
2022-12-13T09:11:34.965Z,985.84
2022-12-13T09:12:31.276Z,985.81
2022-12-13T09:13:31.544Z,985.81
2022-12-13T09:14:34.169Z,985.87
2022-12-13T09:15:34.008Z,985.93
2022-12-13T09:16:30.285Z,985.90
2022-12-13T09:17:30.280Z,985.90
2022-12-13T09:18:36.647Z,985.87
2022-12-13T09:19:36.956Z,985.87
2022-12-13T09:20:31.112Z,985.88
2022-12-13T09:21:32.222Z,985.86
2022-12-13T09:22:33.228Z,985.95
2022-12-13T09:23:30.289Z,985.88
2022-12-13T09:24:36.663Z,985.89
2022-12-13T09:25:36.792Z,985.86
2022-12-13T09:26:37.805Z,985.77
2022-12-13T09:27:31.018Z,985.82
2022-12-13T09:28:31.026Z,985.80
2022-12-13T09:29:29.991Z,985.78
2022-12-13T09:30:31.645Z,985.86
2022-12-13T09:31:30.063Z,985.78
2022-12-13T09:32:29.972Z,985.73
2022-12-13T09:33:31.334Z,985.74
2022-12-13T09:34:30.004Z,985.71
2022-12-13T09:35:30.022Z,985.73
2022-12-13T09:36:29.936Z,985.72
2022-12-13T09:37:29.923Z,985.72
2022-12-13T09:38:29.906Z,985.73
2022-12-13T09:39:29.909Z,985.70
2022-12-13T09:40:29.980Z,985.70
2022-12-13T09:41:29.921Z,985.65
2022-12-13T09:42:30.176Z,985.72
2022-12-13T09:43:32.743Z,985.67
2022-12-13T09:44:45.133Z,985.68
2022-12-13T09:45:32.022Z,985.65
2022-12-13T09:46:34.880Z,985.74
2022-12-13T09:47:35.438Z,985.66
2022-12-13T09:48:34.620Z,985.74
2022-12-13T09:49:34.880Z,985.73
2022-12-13T09:50:37.083Z,985.69
2022-12-13T09:51:41.203Z,985.63
2022-12-13T09:52:33.428Z,985.65
2022-12-13T09:53:33.410Z,985.61
2022-12-13T09:54:29.788Z,985.64
2022-12-13T09:55:30.273Z,985.59
2022-12-13T09:56:29.738Z,985.62
2022-12-13T09:57:31.253Z,985.52
2022-12-13T09:58:29.716Z,985.59
2022-12-13T09:59:29.741Z,985.52
2022-12-13T10:00:29.722Z,985.60
2022-12-13T10:01:29.754Z,985.58
2022-12-13T10:02:29.879Z,985.58
2022-12-13T10:03:29.687Z,985.56
2022-12-13T10:04:29.663Z,985.60
2022-12-13T10:05:37.247Z,985.58
2022-12-13T10:06:30.672Z,985.60
2022-12-13T10:07:29.615Z,985.64
2022-12-13T10:08:29.620Z,985.59
2022-12-13T10:09:29.649Z,985.60
2022-12-13T10:10:29.590Z,985.56
2022-12-13T10:11:31.756Z,985.53
2022-12-13T10:12:29.582Z,985.53
2022-12-13T10:13:29.590Z,985.53
2022-12-13T10:14:29.562Z,985.51
2022-12-13T10:15:29.586Z,985.50
2022-12-13T10:16:36.165Z,985.48
2022-12-13T10:17:29.545Z,985.55
2022-12-13T10:18:30.554Z,985.48
2022-12-13T10:19:30.253Z,985.47
2022-12-13T10:20:30.501Z,985.47
2022-12-13T10:21:29.483Z,985.41
2022-12-13T10:22:29.501Z,985.38
2022-12-13T10:23:47.075Z,985.46
2022-12-13T10:24:36.750Z,985.43
2022-12-13T10:25:30.466Z,985.48
2022-12-13T10:26:29.488Z,985.43
2022-12-13T10:27:29.458Z,985.35
2022-12-13T10:28:29.476Z,985.42
2022-12-13T10:29:29.420Z,985.42
2022-12-13T10:30:29.581Z,985.34
2022-12-13T10:31:30.478Z,985.43
2022-12-13T10:32:29.386Z,985.39
2022-12-13T10:33:29.379Z,985.40
2022-12-13T10:34:29.373Z,985.44
2022-12-13T10:35:29.403Z,985.43
2022-12-13T10:36:29.378Z,985.43
2022-12-13T10:37:29.351Z,985.40
2022-12-13T10:38:31.943Z,985.37
2022-12-13T10:39:29.341Z,985.34
2022-12-13T10:40:32.161Z,985.34
2022-12-13T10:41:29.332Z,985.39
2022-12-13T10:42:33.900Z,985.35
2022-12-13T10:43:30.297Z,985.38
2022-12-13T10:44:29.265Z,985.31
2022-12-13T10:45:29.309Z,985.33
2022-12-13T10:46:29.280Z,985.35
2022-12-13T10:47:29.258Z,985.33
2022-12-13T10:48:29.258Z,985.36
2022-12-13T10:49:30.273Z,985.36
2022-12-13T10:50:29.283Z,985.31
2022-12-13T10:51:29.218Z,985.38
2022-12-13T10:52:31.652Z,985.35
2022-12-13T10:53:29.223Z,985.38
2022-12-13T10:54:29.235Z,985.40
2022-12-13T10:55:30.220Z,985.38
2022-12-13T10:56:29.180Z,985.33
2022-12-13T10:57:29.178Z,985.30
2022-12-13T10:58:29.161Z,985.35
2022-12-13T10:59:29.207Z,985.30
2022-12-13T11:00:29.156Z,985.30
2022-12-13T11:01:29.175Z,985.28
2022-12-13T11:02:29.274Z,985.30
2022-12-13T11:03:29.115Z,985.25
2022-12-13T11:04:29.126Z,985.31
2022-12-13T11:05:29.080Z,985.25
2022-12-13T11:06:29.086Z,985.24
2022-12-13T11:07:29.089Z,985.16
2022-12-13T11:08:29.240Z,985.19
2022-12-13T11:09:29.086Z,985.19
2022-12-13T11:10:30.045Z,985.10
2022-12-13T11:11:29.058Z,985.01
2022-12-13T11:12:29.062Z,985.02
2022-12-13T11:13:29.017Z,984.99
2022-12-13T11:14:32.343Z,984.95
2022-12-13T11:15:28.994Z,984.95
2022-12-13T11:16:29.020Z,984.94
2022-12-13T11:17:28.989Z,984.92
2022-12-13T11:18:28.954Z,984.92
2022-12-13T11:19:28.994Z,984.91
2022-12-13T11:20:28.998Z,984.92
2022-12-13T11:21:28.963Z,984.90
2022-12-13T11:22:28.908Z,984.91
2022-12-13T11:23:28.918Z,984.91
2022-12-13T11:24:28.887Z,984.90
2022-12-13T11:25:28.901Z,984.95
2022-12-13T11:26:28.914Z,984.85
2022-12-13T11:27:28.904Z,984.93
2022-12-13T11:28:28.886Z,984.88
2022-12-13T11:29:28.881Z,984.89
2022-12-13T11:30:28.875Z,984.90
2022-12-13T11:31:28.900Z,984.91
2022-12-13T11:32:28.816Z,984.88
2022-12-13T11:33:28.830Z,984.86
2022-12-13T11:34:28.853Z,984.83
2022-12-13T11:35:28.803Z,984.87
2022-12-13T11:36:28.788Z,984.85
2022-12-13T11:37:28.769Z,984.89
2022-12-13T11:38:28.797Z,984.78
2022-12-13T11:39:28.769Z,984.83
2022-12-13T11:40:28.764Z,984.86
2022-12-13T11:41:31.663Z,984.76
2022-12-13T11:42:28.736Z,984.79
2022-12-13T11:43:28.730Z,984.75
2022-12-13T11:44:28.695Z,984.73
2022-12-13T11:45:28.736Z,984.73
2022-12-13T11:46:28.720Z,984.65
2022-12-13T11:47:28.671Z,984.69
2022-12-13T11:48:29.079Z,984.71
2022-12-13T11:49:28.646Z,984.68
2022-12-13T11:50:33.558Z,984.68
2022-12-13T11:51:28.635Z,984.70
2022-12-13T11:52:28.639Z,984.68
2022-12-13T11:53:29.120Z,984.72
2022-12-13T11:54:28.616Z,984.67
2022-12-13T11:55:28.625Z,984.67
2022-12-13T11:56:28.646Z,984.65
2022-12-13T11:57:28.589Z,984.67
2022-12-13T11:59:29.803Z,984.56
2022-12-13T12:00:33.682Z,984.56
2022-12-13T12:01:28.575Z,984.53
2022-12-13T12:02:28.677Z,984.53
2022-12-13T12:03:28.615Z,984.51
2022-12-13T12:04:28.519Z,984.48
2022-12-13T12:05:28.635Z,984.47
2022-12-13T12:06:28.493Z,984.38
2022-12-13T12:07:33.241Z,984.42
2022-12-13T12:08:43.172Z,984.35
2022-12-13T12:09:29.459Z,984.40
2022-12-13T12:10:28.496Z,984.34
2022-12-13T12:11:28.509Z,984.32
2022-12-13T12:12:28.461Z,984.30
2022-12-13T12:13:28.466Z,984.32
2022-12-13T12:14:28.501Z,984.33
2022-12-13T12:15:28.425Z,984.30
2022-12-13T12:16:28.528Z,984.32
2022-12-13T12:17:31.260Z,984.26
2022-12-13T12:18:28.871Z,984.29
2022-12-13T12:19:28.370Z,984.33
2022-12-13T12:20:28.421Z,984.27
2022-12-13T12:21:42.698Z,984.28
2022-12-13T12:22:30.341Z,984.23
2022-12-13T12:23:28.332Z,984.20
2022-12-13T12:24:28.358Z,984.25
2022-12-13T12:25:28.345Z,984.30
2022-12-13T12:26:28.340Z,984.30
2022-12-13T12:27:28.294Z,984.25
2022-12-13T12:28:28.782Z,984.28
2022-12-13T12:29:28.287Z,984.25
2022-12-13T12:30:28.252Z,984.25